createdAt,value
2022-09-25T00:04:34.456Z,6.80
2022-09-25T00:07:03.387Z,7.38
2022-09-25T00:09:32.248Z,7.10
2022-09-25T00:12:01.615Z,7.53
2022-09-25T00:14:30.712Z,6.90
2022-09-25T00:16:57.408Z,7.95
2022-09-25T00:19:42.707Z,7.38
2022-09-25T00:22:12.066Z,7.35
2022-09-25T00:24:38.819Z,7.30
2022-09-25T00:27:08.539Z,7.50
2022-09-25T00:29:39.527Z,7.70
2022-09-25T00:32:08.330Z,7.07
2022-09-25T00:34:35.178Z,7.28
2022-09-25T00:37:01.971Z,6.82
2022-09-25T00:39:31.702Z,7.72
2022-09-25T00:42:00.694Z,8.25
2022-09-25T00:45:03.978Z,7.53
2022-09-25T00:47:51.897Z,7.93
2022-09-25T00:50:37.125Z,7.25
2022-09-25T00:53:11.699Z,7.25
2022-09-25T00:55:38.721Z,7.43
2022-09-25T00:58:06.825Z,7.65
2022-09-25T01:00:36.025Z,7.43
2022-09-25T01:05:34.133Z,6.93
2022-09-25T01:08:02.341Z,7.93
2022-09-25T01:10:29.378Z,8.05
2022-09-25T01:12:56.684Z,7.38
2022-09-25T01:15:32.456Z,8.10
2022-09-25T01:18:36.734Z,7.80
2022-09-25T01:21:32.501Z,6.50
2022-09-25T01:24:08.119Z,8.15
2022-09-25T01:26:44.205Z,7.45
2022-09-25T01:29:25.534Z,8.10
2022-09-25T01:31:55.184Z,7.40
2022-09-25T01:34:28.599Z,7.70
2022-09-25T01:37:04.270Z,7.07
2022-09-25T01:39:45.626Z,7.63
2022-09-25T01:42:44.787Z,7.35
2022-09-25T01:47:48.993Z,7.20
2022-09-25T01:50:32.837Z,6.20
2022-09-25T01:53:08.224Z,6.50
2022-09-25T01:55:40.996Z,6.90
2022-09-25T01:58:30.826Z,6.35
2022-09-25T02:01:10.536Z,6.78
2022-09-25T02:03:45.801Z,6.80
2022-09-25T02:06:19.788Z,7.35
2022-09-25T02:08:52.598Z,7.20
2022-09-25T02:11:19.805Z,6.35
2022-09-25T02:13:56.650Z,7.43
2022-09-25T02:16:29.210Z,6.30
2022-09-25T02:19:18.209Z,7.63
2022-09-25T02:21:50.246Z,6.53
2022-09-25T02:24:27.447Z,7.18
2022-09-25T02:26:54.203Z,6.78
2022-09-25T02:29:21.430Z,6.63
2022-09-25T02:31:59.731Z,6.85
2022-09-25T02:34:29.167Z,6.85
2022-09-25T02:36:58.535Z,6.72
2022-09-25T02:42:27.491Z,5.72
2022-09-25T02:45:12.318Z,7.13
2022-09-25T02:48:13.199Z,6.78
2022-09-25T02:51:06.032Z,6.45
2022-09-25T02:53:32.660Z,6.82
2022-09-25T02:56:13.212Z,6.68
2022-09-25T02:58:41.622Z,6.30
2022-09-25T03:01:10.784Z,6.47
2022-09-25T03:03:38.813Z,6.90
2022-09-25T03:06:06.871Z,6.07
2022-09-25T03:08:39.509Z,7.35
2022-09-25T03:11:19.769Z,6.75
2022-09-25T03:16:36.430Z,6.10
2022-09-25T03:19:03.710Z,6.65
2022-09-25T03:21:33.028Z,6.18
2022-09-25T03:24:01.173Z,6.38
2022-09-25T03:26:30.507Z,6.57
2022-09-25T03:28:58.437Z,6.97
2022-09-25T03:31:25.177Z,6.47
2022-09-25T03:33:52.236Z,6.57
2022-09-25T03:36:23.118Z,6.47
2022-09-25T03:38:52.546Z,6.25
2022-09-25T03:43:51.734Z,6.07
2022-09-25T03:46:20.730Z,6.82
2022-09-25T03:48:49.790Z,6.85
2022-09-25T03:51:16.489Z,6.72
2022-09-25T03:53:43.217Z,6.82
2022-09-25T03:56:15.634Z,6.38
2022-09-25T03:58:44.843Z,6.13
2022-09-25T04:01:11.886Z,5.75
2022-09-25T04:03:39.565Z,6.38
2022-09-25T04:06:07.873Z,6.75
2022-09-25T04:08:37.562Z,5.80
2022-09-25T04:11:04.846Z,6.13
2022-09-25T04:13:36.445Z,6.20
2022-09-25T04:16:09.632Z,5.10
2022-09-25T04:18:38.743Z,6.22
2022-09-25T04:21:12.124Z,5.97
2022-09-25T04:23:42.281Z,5.50
2022-09-25T04:26:14.325Z,5.53
2022-09-25T04:28:45.515Z,5.90
2022-09-25T04:31:12.224Z,6.10
2022-09-25T04:33:50.482Z,7.00
2022-09-25T04:36:20.196Z,6.40
2022-09-25T04:38:48.477Z,6.00
2022-09-25T04:41:20.157Z,6.15
2022-09-25T04:43:47.465Z,5.80
2022-09-25T04:46:21.080Z,5.60
2022-09-25T04:48:49.160Z,5.80
2022-09-25T04:51:18.299Z,6.60
2022-09-25T04:53:47.331Z,6.05
2022-09-25T04:56:17.086Z,5.85
2022-09-25T04:58:48.542Z,5.75
2022-09-25T05:01:19.799Z,5.93
2022-09-25T05:03:53.691Z,5.57
2022-09-25T05:06:23.406Z,5.20
2022-09-25T05:08:50.645Z,6.15
2022-09-25T05:11:19.765Z,6.05
2022-09-25T05:13:50.252Z,5.85
2022-09-25T05:16:19.304Z,5.53
2022-09-25T05:18:46.381Z,5.47
2022-09-25T05:21:13.094Z,6.18
2022-09-25T05:23:40.122Z,6.07
2022-09-25T05:26:07.304Z,6.10
2022-09-25T05:28:34.493Z,5.65
2022-09-25T05:31:08.956Z,5.13
2022-09-25T05:33:38.539Z,4.95
2022-09-25T05:36:07.847Z,4.82
2022-09-25T05:41:08.951Z,5.10
2022-09-25T05:43:42.961Z,4.97
2022-09-25T05:46:11.023Z,5.20
2022-09-25T05:48:40.575Z,4.78
2022-09-25T05:51:07.464Z,4.93
2022-09-25T05:53:34.703Z,4.80
2022-09-25T05:56:05.645Z,5.47
2022-09-25T05:58:38.799Z,5.22
2022-09-25T06:01:06.620Z,5.28
2022-09-25T06:03:36.222Z,4.35
2022-09-25T06:06:02.905Z,5.65
2022-09-25T06:08:32.835Z,4.93
2022-09-25T06:11:02.398Z,4.60
2022-09-25T06:13:31.991Z,5.50
2022-09-25T06:15:59.053Z,4.78
2022-09-25T06:18:26.357Z,4.55
2022-09-25T06:20:59.941Z,4.50
2022-09-25T06:23:29.361Z,5.07
2022-09-25T06:26:02.885Z,4.50
2022-09-25T06:28:30.099Z,4.47
2022-09-25T06:31:00.175Z,4.45
2022-09-25T06:33:26.892Z,4.88
2022-09-25T06:35:53.567Z,4.93
2022-09-25T06:38:22.744Z,5.10
2022-09-25T06:40:56.085Z,4.55
2022-09-25T06:43:26.440Z,4.45
2022-09-25T06:45:55.823Z,4.53
2022-09-25T06:50:56.612Z,4.97
2022-09-25T06:53:24.597Z,4.88
2022-09-25T06:55:52.320Z,5.18
2022-09-25T06:58:20.939Z,4.57
2022-09-25T07:00:48.604Z,4.15
2022-09-25T07:03:33.818Z,4.65
2022-09-25T07:06:08.777Z,4.95
2022-09-25T07:08:40.220Z,4.38
2022-09-25T07:11:07.036Z,4.07
2022-09-25T07:13:38.309Z,4.28
2022-09-25T07:16:11.657Z,4.90
2022-09-25T07:18:41.282Z,5.07
2022-09-25T07:21:19.153Z,4.45
2022-09-25T07:23:52.083Z,5.10
2022-09-25T07:26:22.599Z,4.63
2022-09-25T07:28:59.379Z,4.45
2022-09-25T07:31:33.811Z,3.88
2022-09-25T07:34:05.887Z,3.92
2022-09-25T07:36:35.493Z,4.88
2022-09-25T07:39:02.134Z,4.93
2022-09-25T07:41:34.332Z,4.50
2022-09-25T07:44:18.069Z,4.28
2022-09-25T07:46:47.830Z,4.10
2022-09-25T07:49:14.583Z,4.53
2022-09-25T07:51:41.355Z,5.28
2022-09-25T07:54:12.856Z,4.50
2022-09-25T07:59:06.697Z,4.50
2022-09-25T08:01:40.976Z,5.10
2022-09-25T08:04:10.329Z,5.28
2022-09-25T08:06:39.313Z,4.35
2022-09-25T08:09:10.317Z,4.70
2022-09-25T08:11:37.558Z,5.40
2022-09-25T08:14:04.320Z,6.10
2022-09-25T08:16:31.017Z,5.00
2022-09-25T08:19:00.024Z,4.88
2022-09-25T08:21:26.683Z,4.63
2022-09-25T08:23:54.336Z,5.22
2022-09-25T08:26:25.676Z,5.05
2022-09-25T08:28:54.576Z,5.15
2022-09-25T08:31:26.399Z,6.10
2022-09-25T08:33:54.415Z,4.93
2022-09-25T08:36:24.107Z,5.15
2022-09-25T08:38:56.420Z,5.43
2022-09-25T08:41:26.294Z,5.20
2022-09-25T08:44:18.203Z,5.90
2022-09-25T08:47:29.535Z,4.35
2022-09-25T08:50:11.132Z,5.72
2022-09-25T08:52:42.293Z,5.40
2022-09-25T08:55:49.861Z,4.65
2022-09-25T08:58:35.120Z,5.05
2022-09-25T09:01:04.936Z,4.43
2022-09-25T09:03:44.422Z,4.05
2022-09-25T09:06:16.345Z,4.40
2022-09-25T09:08:46.146Z,3.92
2022-09-25T09:11:18.053Z,3.80
2022-09-25T09:14:06.445Z,3.67
2022-09-25T09:16:45.011Z,4.00
2022-09-25T09:19:12.851Z,3.58
2022-09-25T09:21:44.524Z,4.25
2022-09-25T09:24:23.907Z,3.83
2022-09-25T09:27:27.478Z,3.17
2022-09-25T09:30:06.136Z,3.80
2022-09-25T09:32:39.149Z,3.30
2022-09-25T09:35:15.223Z,3.10
2022-09-25T09:37:47.249Z,2.10
2022-09-25T09:40:26.267Z,3.13
2022-09-25T09:43:04.198Z,2.88
2022-09-25T09:45:38.611Z,1.90
2022-09-25T09:48:06.432Z,1.80
2022-09-25T09:50:47.199Z,1.40
2022-09-25T09:53:55.847Z,1.63
2022-09-25T09:56:35.830Z,1.90
2022-09-25T09:59:41.292Z,2.03
2022-09-25T10:02:40.651Z,1.42
2022-09-25T10:05:30.706Z,1.33
2022-09-25T10:07:57.458Z,7.10
2022-09-25T10:10:37.397Z,1.65
2022-09-25T10:13:10.294Z,1.35
2022-09-25T10:15:42.888Z,1.65
2022-09-25T10:18:09.772Z,1.00
2022-09-25T10:20:43.358Z,0.93
2022-09-25T10:23:28.278Z,0.50
2022-09-25T10:26:00.092Z,1.08
2022-09-25T10:28:28.412Z,0.75
2022-09-25T10:30:56.284Z,0.70
2022-09-25T10:33:25.025Z,0.90
2022-09-25T10:35:55.073Z,0.68
2022-09-25T10:38:25.778Z,0.80
2022-09-25T10:41:19.983Z,0.80
2022-09-25T10:43:57.059Z,1.00
2022-09-25T10:49:41.442Z,0.80
2022-09-25T10:52:10.955Z,1.02
2022-09-25T10:54:44.775Z,0.90
2022-09-25T10:57:34.223Z,1.30
2022-09-25T11:00:06.468Z,0.90
2022-09-25T11:02:34.246Z,1.27
2022-09-25T11:05:01.890Z,1.45
2022-09-25T11:07:28.942Z,1.02
2022-09-25T11:10:00.323Z,1.15
2022-09-25T11:12:31.436Z,1.08
2022-09-25T11:15:05.863Z,1.27
2022-09-25T11:17:42.125Z,0.98
2022-09-25T11:20:19.315Z,1.60
2022-09-25T11:22:50.505Z,1.67
2022-09-25T11:25:26.324Z,1.60
2022-09-25T11:28:04.864Z,1.60
2022-09-25T11:30:43.535Z,1.88
2022-09-25T11:33:36.581Z,1.58
2022-09-25T11:36:07.449Z,1.50
2022-09-25T11:38:58.247Z,1.75
2022-09-25T11:41:37.140Z,1.83
2022-09-25T11:44:34.639Z,2.22
2022-09-25T11:47:18.078Z,2.35
2022-09-25T11:49:48.462Z,1.73
2022-09-25T11:52:43.784Z,1.50
2022-09-25T11:55:28.701Z,2.10
2022-09-25T11:58:16.791Z,2.20
2022-09-25T12:00:50.685Z,1.77
2022-09-25T12:03:30.366Z,1.40
2022-09-25T12:06:01.082Z,2.03
2022-09-25T12:08:49.047Z,2.08
2022-09-25T12:11:28.592Z,1.60
2022-09-25T12:14:11.988Z,0.95
2022-09-25T12:16:48.030Z,1.17
2022-09-25T12:19:36.606Z,1.25
2022-09-25T12:22:14.096Z,0.95
2022-09-25T12:24:58.812Z,0.70
2022-09-25T12:27:47.667Z,0.70
2022-09-25T12:30:23.977Z,0.68
2022-09-25T12:32:53.649Z,1.88
2022-09-25T12:35:39.158Z,0.80
2022-09-25T12:38:15.659Z,1.00
2022-09-25T12:41:07.501Z,0.60
2022-09-25T12:43:41.276Z,0.90
2022-09-25T12:46:32.589Z,1.30
2022-09-25T12:49:13.559Z,1.00
2022-09-25T12:51:43.876Z,0.93
2022-09-25T12:54:22.852Z,0.90
2022-09-25T12:57:14.202Z,1.25
2022-09-25T12:59:49.240Z,1.25
2022-09-25T13:03:15.085Z,1.27
2022-09-25T13:05:57.438Z,1.17
2022-09-25T13:08:40.074Z,0.88
2022-09-25T13:11:12.628Z,0.70
2022-09-25T13:13:49.010Z,1.52
2022-09-25T13:16:16.157Z,0.73
2022-09-25T13:19:11.261Z,1.17
2022-09-25T13:21:45.740Z,1.63
2022-09-25T13:24:17.688Z,1.02
2022-09-25T13:26:51.301Z,1.10
2022-09-25T13:29:35.597Z,0.90
2022-09-25T13:32:23.874Z,1.08
2022-09-25T13:35:02.935Z,1.37
2022-09-25T13:37:32.246Z,1.60
2022-09-25T13:40:18.615Z,1.50
2022-09-25T13:42:46.339Z,1.50
2022-09-25T13:45:22.436Z,1.80
2022-09-25T13:47:54.873Z,1.40
2022-09-25T13:50:24.552Z,1.25
2022-09-25T13:53:18.280Z,1.42
2022-09-25T13:55:49.975Z,1.25
2022-09-25T13:58:21.158Z,1.95
2022-09-25T14:00:53.897Z,1.67
2022-09-25T14:03:46.077Z,2.10
2022-09-25T14:06:17.669Z,1.35
2022-09-25T14:08:50.741Z,1.55
2022-09-25T14:11:19.919Z,1.20
2022-09-25T14:16:38.443Z,1.30
2022-09-25T14:19:06.687Z,1.42
2022-09-25T14:21:35.220Z,2.08
2022-09-25T14:24:32.906Z,1.50
2022-09-25T14:27:06.280Z,2.28
2022-09-25T14:29:40.376Z,2.25
2022-09-25T14:32:53.821Z,2.20
2022-09-25T14:35:25.084Z,2.78
2022-09-25T14:38:36.944Z,2.25
2022-09-25T14:41:23.027Z,2.70
2022-09-25T14:43:52.685Z,3.10
2022-09-25T14:46:27.120Z,3.10
2022-09-25T14:48:59.789Z,2.58
2022-09-25T14:51:43.511Z,2.10
2022-09-25T14:54:15.959Z,2.50
2022-09-25T14:56:48.948Z,2.15
2022-09-25T14:59:37.823Z,2.53
2022-09-25T15:02:04.750Z,2.17
2022-09-25T15:04:34.563Z,1.95
2022-09-25T15:07:12.413Z,2.17
2022-09-25T15:09:49.063Z,2.35
2022-09-25T15:12:33.881Z,3.00
2022-09-25T15:15:11.428Z,3.00
2022-09-25T15:17:47.868Z,2.30
2022-09-25T15:20:20.998Z,2.35
2022-09-25T15:22:52.885Z,2.13
2022-09-25T15:25:39.833Z,2.08
2022-09-25T15:30:41.741Z,2.88
2022-09-25T15:34:02.336Z,3.28
2022-09-25T15:36:29.131Z,2.20
2022-09-25T15:39:02.793Z,2.72
2022-09-25T15:41:29.553Z,2.90
2022-09-25T15:44:19.014Z,3.05
2022-09-25T15:46:50.282Z,3.05
2022-09-25T15:49:24.536Z,2.55
2022-09-25T15:52:00.350Z,3.70
2022-09-25T15:54:45.225Z,3.13
2022-09-25T15:57:14.928Z,4.40
2022-09-25T16:00:03.343Z,2.85
2022-09-25T16:05:24.419Z,3.72
2022-09-25T16:07:51.167Z,3.78
2022-09-25T16:10:17.761Z,2.72
2022-09-25T16:12:49.203Z,2.90
2022-09-25T16:15:28.529Z,2.60
2022-09-25T16:20:37.191Z,4.10
2022-09-25T16:23:06.520Z,4.00
2022-09-25T16:25:43.353Z,4.15
2022-09-25T16:28:36.324Z,3.47
2022-09-25T16:31:08.191Z,3.80
2022-09-25T16:33:39.020Z,5.13
2022-09-25T16:36:17.621Z,4.47
2022-09-25T16:39:07.932Z,3.17
2022-09-25T16:41:38.765Z,3.10
2022-09-25T16:44:17.882Z,4.03
2022-09-25T16:46:55.431Z,3.10
2022-09-25T16:49:26.689Z,3.88
2022-09-25T16:51:54.837Z,4.40
2022-09-25T16:54:22.575Z,4.45
2022-09-25T16:56:51.695Z,4.85
2022-09-25T16:59:22.166Z,4.65
2022-09-25T17:02:02.380Z,3.85
2022-09-25T17:04:30.888Z,4.50
2022-09-25T17:06:58.647Z,4.97
2022-09-25T17:09:29.160Z,4.78
2022-09-25T17:12:07.327Z,4.47
2022-09-25T17:14:34.264Z,5.90
2022-09-25T17:17:00.988Z,6.20
2022-09-25T17:19:28.006Z,6.63
2022-09-25T17:21:58.087Z,8.18
2022-09-25T17:24:27.961Z,7.85
2022-09-25T17:26:54.793Z,8.05
2022-09-25T17:29:22.200Z,9.13
2022-09-25T17:31:49.005Z,13.80
2022-09-25T17:34:28.515Z,9.07
2022-09-25T17:36:58.026Z,7.40
2022-09-25T17:39:27.588Z,8.00
2022-09-25T17:41:54.694Z,8.02
2022-09-25T17:44:23.749Z,8.52
2022-09-25T17:46:51.889Z,8.13
2022-09-25T17:49:21.697Z,8.00
2022-09-25T17:51:48.517Z,8.60
2022-09-25T17:54:23.302Z,8.93
2022-09-25T17:56:52.266Z,9.50
2022-09-25T17:59:22.273Z,9.65
2022-09-25T18:01:54.821Z,8.82
2022-09-25T18:04:24.000Z,9.10
2022-09-25T18:06:53.187Z,9.05
2022-09-25T18:09:20.122Z,10.27
2022-09-25T18:11:49.162Z,9.80
2022-09-25T18:14:18.290Z,9.13
2022-09-25T18:16:45.308Z,9.07
2022-09-25T18:19:38.060Z,10.27
2022-09-25T18:22:21.832Z,10.75
2022-09-25T18:24:56.267Z,10.05
2022-09-25T18:27:31.005Z,11.95
2022-09-25T18:29:59.946Z,10.93
2022-09-25T18:32:31.389Z,11.10
2022-09-25T18:35:03.011Z,11.02
2022-09-25T18:37:29.815Z,12.18
2022-09-25T18:39:58.801Z,11.00
2022-09-25T18:42:25.484Z,11.50
2022-09-25T18:44:53.362Z,11.73
2022-09-25T18:47:22.202Z,12.95
2022-09-25T18:49:51.678Z,12.48
2022-09-25T18:52:23.391Z,14.13
2022-09-25T18:57:19.203Z,14.18
2022-09-25T18:59:50.395Z,13.75
2022-09-25T19:02:22.519Z,12.85
2022-09-25T19:04:51.316Z,13.82
2022-09-25T19:07:19.663Z,12.88
2022-09-25T19:09:46.493Z,12.80
2022-09-25T19:12:17.697Z,13.60
2022-09-25T19:14:45.477Z,13.27
2022-09-25T19:17:15.903Z,14.77
2022-09-25T19:19:46.339Z,14.77
2022-09-25T19:22:19.928Z,15.65
2022-09-25T19:24:47.808Z,15.55
2022-09-25T19:27:18.962Z,17.02
2022-09-25T19:29:46.072Z,17.70
2022-09-25T19:32:15.885Z,19.77
2022-09-25T19:34:42.877Z,18.90
2022-09-25T19:37:12.562Z,18.55
2022-09-25T19:39:58.719Z,18.58
2022-09-25T19:42:37.736Z,19.58
2022-09-25T19:45:04.813Z,18.98
2022-09-25T19:47:32.061Z,18.08
2022-09-25T19:50:03.515Z,18.00
2022-09-25T19:52:30.341Z,19.45
2022-09-25T19:54:59.379Z,19.48
2022-09-25T19:57:31.015Z,18.25
2022-09-25T19:59:57.744Z,19.05
2022-09-25T20:02:24.546Z,19.90
2022-09-25T20:04:54.113Z,19.45
2022-09-25T20:07:23.334Z,19.83
2022-09-25T20:09:50.047Z,19.55
2022-09-25T20:12:16.713Z,18.17
2022-09-25T20:14:45.772Z,19.67
2022-09-25T20:17:17.088Z,19.35
2022-09-25T20:19:49.678Z,20.80
2022-09-25T20:22:16.838Z,21.88
2022-09-25T20:24:48.268Z,20.85
2022-09-25T20:27:15.695Z,20.33
2022-09-25T20:32:13.372Z,19.48
2022-09-25T20:37:06.717Z,19.33
2022-09-25T20:39:35.621Z,19.38
2022-09-25T20:42:02.692Z,17.65
2022-09-25T20:44:31.547Z,20.20
2022-09-25T20:47:00.621Z,19.67
2022-09-25T20:49:31.029Z,20.25
2022-09-25T20:51:57.775Z,20.38
2022-09-25T20:54:27.365Z,21.17
2022-09-25T20:56:56.753Z,21.35
2022-09-25T20:59:23.649Z,19.92
2022-09-25T21:01:54.153Z,19.77
2022-09-25T21:04:20.891Z,19.30
2022-09-25T21:06:47.624Z,18.27
2022-09-25T21:09:25.496Z,17.02
2022-09-25T21:11:53.832Z,18.58
2022-09-25T21:14:26.106Z,18.05
2022-09-25T21:16:56.373Z,17.75
2022-09-25T21:19:23.967Z,17.17
2022-09-25T21:21:51.111Z,15.93
2022-09-25T21:24:19.598Z,17.67
2022-09-25T21:26:47.260Z,17.90
2022-09-25T21:29:20.064Z,17.05
2022-09-25T21:31:50.847Z,15.65
2022-09-25T21:34:21.046Z,15.40
2022-09-25T21:36:50.246Z,15.40
2022-09-25T21:39:21.173Z,14.82
2022-09-25T21:41:50.938Z,15.50
2022-09-25T21:44:20.530Z,15.93
2022-09-25T21:46:47.232Z,16.45
2022-09-25T21:49:20.766Z,14.60
2022-09-25T21:51:48.281Z,14.35
2022-09-25T21:54:17.649Z,14.82
2022-09-25T21:56:49.139Z,13.25
2022-09-25T21:59:16.429Z,13.10
2022-09-25T22:01:43.281Z,12.45
2022-09-25T22:04:12.351Z,13.07
2022-09-25T22:06:41.472Z,12.40
2022-09-25T22:09:17.275Z,12.05
2022-09-25T22:11:47.664Z,11.32
2022-09-25T22:14:16.565Z,11.82
2022-09-25T22:16:48.823Z,10.73
2022-09-25T22:19:20.080Z,12.60
2022-09-25T22:21:48.352Z,11.75
2022-09-25T22:24:18.266Z,12.40
2022-09-25T22:26:47.382Z,12.55
2022-09-25T22:29:17.122Z,12.75
2022-09-25T22:31:44.333Z,13.68
2022-09-25T22:34:22.189Z,13.57
2022-09-25T22:36:57.878Z,12.68
2022-09-25T22:39:26.211Z,13.07
2022-09-25T22:41:56.333Z,12.43
2022-09-25T22:44:26.046Z,12.23
2022-09-25T22:46:52.782Z,13.45
2022-09-25T22:49:19.517Z,13.48
2022-09-25T22:51:48.865Z,12.52
2022-09-25T22:56:47.129Z,12.93
2022-09-25T22:59:18.441Z,12.18
2022-09-25T23:01:49.912Z,13.60
2022-09-25T23:04:19.654Z,13.23
2022-09-25T23:06:46.844Z,14.05
2022-09-25T23:09:18.570Z,14.27
2022-09-25T23:11:45.867Z,13.55
2022-09-25T23:14:17.074Z,13.88
2022-09-25T23:16:45.052Z,13.50
2022-09-25T23:19:14.937Z,13.85
2022-09-25T23:21:42.124Z,14.40
2022-09-25T23:24:14.933Z,13.88
2022-09-25T23:26:41.875Z,14.15
2022-09-25T23:29:17.497Z,14.75
2022-09-25T23:31:45.844Z,14.65
2022-09-25T23:34:15.226Z,13.02
2022-09-25T23:36:46.436Z,14.63
2022-09-25T23:39:18.639Z,12.75
2022-09-25T23:41:45.713Z,13.50
2022-09-25T23:44:12.404Z,14.50
2022-09-25T23:46:44.087Z,14.40
2022-09-25T23:49:14.174Z,13.23
2022-09-25T23:51:43.532Z,13.30
2022-09-25T23:54:10.512Z,12.43
2022-09-25T23:56:41.085Z,12.80
2022-09-25T23:59:11.237Z,12.90
